sensor_id;sensor_type;location;lat;lon;timestamp;P1;durP1;ratioP1;P2;durP2;ratioP2
65597;SDS011;52267;51.984;20.956;2024-01-27T00:01:36;8.40;;;3.60;;
65597;SDS011;52267;51.984;20.956;2024-01-27T00:04:03;5.80;;;3.90;;
65597;SDS011;52267;51.984;20.956;2024-01-27T00:06:30;4.80;;;2.70;;
65597;SDS011;52267;51.984;20.956;2024-01-27T00:08:58;9.60;;;3.50;;
65597;SDS011;52267;51.984;20.956;2024-01-27T00:11:25;6.40;;;3.10;;
65597;SDS011;52267;51.984;20.956;2024-01-27T00:13:52;6.70;;;3.40;;
65597;SDS011;52267;51.984;20.956;2024-01-27T00:16:19;7.00;;;3.80;;
65597;SDS011;52267;51.984;20.956;2024-01-27T00:18:46;7.40;;;3.40;;
65597;SDS011;52267;51.984;20.956;2024-01-27T00:21:13;5.30;;;2.90;;
65597;SDS011;52267;51.984;20.956;2024-01-27T00:23:40;4.70;;;3.20;;
65597;SDS011;52267;51.984;20.956;2024-01-27T00:26:07;5.70;;;2.70;;
65597;SDS011;52267;51.984;20.956;2024-01-27T00:28:34;5.20;;;2.40;;
65597;SDS011;52267;51.984;20.956;2024-01-27T00:31:01;4.60;;;2.50;;
65597;SDS011;52267;51.984;20.956;2024-01-27T00:33:28;6.20;;;2.20;;
65597;SDS011;52267;51.984;20.956;2024-01-27T00:35:55;4.40;;;1.90;;
65597;SDS011;52267;51.984;20.956;2024-01-27T00:38:22;4.20;;;2.10;;
65597;SDS011;52267;51.984;20.956;2024-01-27T00:40:49;5.20;;;2.10;;
65597;SDS011;52267;51.984;20.956;2024-01-27T00:43:16;4.00;;;2.10;;
65597;SDS011;52267;51.984;20.956;2024-01-27T00:45:43;6.10;;;2.20;;
65597;SDS011;52267;51.984;20.956;2024-01-27T00:48:10;6.60;;;1.90;;
65597;SDS011;52267;51.984;20.956;2024-01-27T00:50:37;3.00;;;1.50;;
65597;SDS011;52267;51.984;20.956;2024-01-27T00:53:04;5.80;;;2.00;;
65597;SDS011;52267;51.984;20.956;2024-01-27T00:55:31;3.90;;;2.00;;
65597;SDS011;52267;51.984;20.956;2024-01-27T00:57:58;5.50;;;1.80;;
65597;SDS011;52267;51.984;20.956;2024-01-27T01:00:25;11.40;;;2.30;;
65597;SDS011;52267;51.984;20.956;2024-01-27T01:02:52;4.70;;;1.50;;
65597;SDS011;52267;51.984;20.956;2024-01-27T01:05:19;3.30;;;1.20;;
65597;SDS011;52267;51.984;20.956;2024-01-27T01:07:46;4.40;;;1.60;;
65597;SDS011;52267;51.984;20.956;2024-01-27T01:10:13;5.70;;;1.90;;
65597;SDS011;52267;51.984;20.956;2024-01-27T01:12:40;3.60;;;1.70;;
65597;SDS011;52267;51.984;20.956;2024-01-27T01:15:08;4.30;;;1.70;;
65597;SDS011;52267;51.984;20.956;2024-01-27T01:17:35;6.60;;;2.10;;
65597;SDS011;52267;51.984;20.956;2024-01-27T01:20:02;8.00;;;2.10;;
65597;SDS011;52267;51.984;20.956;2024-01-27T01:22:29;6.60;;;2.30;;
65597;SDS011;52267;51.984;20.956;2024-01-27T01:24:56;4.50;;;2.00;;
65597;SDS011;52267;51.984;20.956;2024-01-27T01:27:23;7.70;;;3.20;;
65597;SDS011;52267;51.984;20.956;2024-01-27T01:29:50;6.40;;;2.40;;
65597;SDS011;52267;51.984;20.956;2024-01-27T01:32:17;7.20;;;2.30;;
65597;SDS011;52267;51.984;20.956;2024-01-27T01:34:46;6.70;;;1.90;;
65597;SDS011;52267;51.984;20.956;2024-01-27T01:37:13;5.70;;;1.70;;
65597;SDS011;52267;51.984;20.956;2024-01-27T01:39:40;7.40;;;1.60;;
65597;SDS011;52267;51.984;20.956;2024-01-27T01:42:07;5.90;;;1.60;;
65597;SDS011;52267;51.984;20.956;2024-01-27T01:44:34;6.50;;;2.00;;
65597;SDS011;52267;51.984;20.956;2024-01-27T01:47:01;6.50;;;2.10;;
65597;SDS011;52267;51.984;20.956;2024-01-27T01:49:30;6.60;;;1.70;;
65597;SDS011;52267;51.984;20.956;2024-01-27T01:51:57;5.70;;;2.20;;
65597;SDS011;52267;51.984;20.956;2024-01-27T01:54:24;8.20;;;2.90;;
65597;SDS011;52267;51.984;20.956;2024-01-27T01:56:58;11.20;;;2.50;;
65597;SDS011;52267;51.984;20.956;2024-01-27T01:59:25;4.40;;;1.70;;
65597;SDS011;52267;51.984;20.956;2024-01-27T02:01:52;7.00;;;2.00;;
65597;SDS011;52267;51.984;20.956;2024-01-27T02:04:19;8.00;;;2.00;;
65597;SDS011;52267;51.984;20.956;2024-01-27T02:06:46;6.80;;;2.10;;
65597;SDS011;52267;51.984;20.956;2024-01-27T02:09:13;10.00;;;2.30;;
65597;SDS011;52267;51.984;20.956;2024-01-27T02:11:40;9.40;;;2.70;;
65597;SDS011;52267;51.984;20.956;2024-01-27T02:14:08;10.20;;;2.70;;
65597;SDS011;52267;51.984;20.956;2024-01-27T02:16:34;7.70;;;2.10;;
65597;SDS011;52267;51.984;20.956;2024-01-27T02:19:01;11.70;;;2.90;;
65597;SDS011;52267;51.984;20.956;2024-01-27T02:21:28;8.30;;;2.20;;
65597;SDS011;52267;51.984;20.956;2024-01-27T02:23:55;9.00;;;2.20;;
65597;SDS011;52267;51.984;20.956;2024-01-27T02:26:22;5.10;;;2.00;;
65597;SDS011;52267;51.984;20.956;2024-01-27T02:28:49;6.70;;;2.20;;
65597;SDS011;52267;51.984;20.956;2024-01-27T02:31:16;11.00;;;3.40;;
65597;SDS011;52267;51.984;20.956;2024-01-27T02:33:43;7.90;;;2.10;;
65597;SDS011;52267;51.984;20.956;2024-01-27T02:36:10;8.30;;;2.40;;
65597;SDS011;52267;51.984;20.956;2024-01-27T02:38:37;5.70;;;2.50;;
65597;SDS011;52267;51.984;20.956;2024-01-27T02:41:04;9.40;;;1.80;;
65597;SDS011;52267;51.984;20.956;2024-01-27T02:43:31;8.40;;;2.40;;
65597;SDS011;52267;51.984;20.956;2024-01-27T02:45:58;9.30;;;2.20;;
65597;SDS011;52267;51.984;20.956;2024-01-27T02:48:25;6.10;;;2.30;;
65597;SDS011;52267;51.984;20.956;2024-01-27T02:50:52;10.90;;;2.80;;
65597;SDS011;52267;51.984;20.956;2024-01-27T02:53:19;12.10;;;2.30;;
65597;SDS011;52267;51.984;20.956;2024-01-27T02:55:46;9.40;;;2.60;;
65597;SDS011;52267;51.984;20.956;2024-01-27T02:58:13;11.10;;;2.80;;
65597;SDS011;52267;51.984;20.956;2024-01-27T03:00:40;7.70;;;2.10;;
65597;SDS011;52267;51.984;20.956;2024-01-27T03:03:07;10.90;;;2.70;;
65597;SDS011;52267;51.984;20.956;2024-01-27T03:05:34;9.20;;;2.30;;
65597;SDS011;52267;51.984;20.956;2024-01-27T03:08:01;7.60;;;2.80;;
65597;SDS011;52267;51.984;20.956;2024-01-27T03:10:28;8.50;;;2.40;;
65597;SDS011;52267;51.984;20.956;2024-01-27T03:12:55;17.20;;;2.90;;
65597;SDS011;52267;51.984;20.956;2024-01-27T03:15:23;9.00;;;2.20;;
65597;SDS011;52267;51.984;20.956;2024-01-27T03:17:50;11.60;;;2.80;;
65597;SDS011;52267;51.984;20.956;2024-01-27T03:20:17;6.50;;;2.30;;
65597;SDS011;52267;51.984;20.956;2024-01-27T03:22:44;9.70;;;2.50;;
65597;SDS011;52267;51.984;20.956;2024-01-27T03:25:11;9.30;;;2.40;;
65597;SDS011;52267;51.984;20.956;2024-01-27T03:27:38;7.80;;;2.30;;
65597;SDS011;52267;51.984;20.956;2024-01-27T03:30:05;5.20;;;2.00;;
65597;SDS011;52267;51.984;20.956;2024-01-27T03:32:34;6.80;;;2.40;;
65597;SDS011;52267;51.984;20.956;2024-01-27T03:35:02;11.00;;;2.70;;
65597;SDS011;52267;51.984;20.956;2024-01-27T03:37:29;8.00;;;2.50;;
65597;SDS011;52267;51.984;20.956;2024-01-27T03:39:56;5.30;;;2.10;;
65597;SDS011;52267;51.984;20.956;2024-01-27T03:42:23;6.10;;;2.30;;
65597;SDS011;52267;51.984;20.956;2024-01-27T03:44:50;7.10;;;2.70;;
65597;SDS011;52267;51.984;20.956;2024-01-27T03:47:18;9.10;;;2.90;;
65597;SDS011;52267;51.984;20.956;2024-01-27T03:49:45;8.30;;;2.70;;
65597;SDS011;52267;51.984;20.956;2024-01-27T03:52:12;10.70;;;2.50;;
65597;SDS011;52267;51.984;20.956;2024-01-27T03:54:39;10.00;;;3.20;;
65597;SDS011;52267;51.984;20.956;2024-01-27T03:57:06;7.20;;;2.60;;
65597;SDS011;52267;51.984;20.956;2024-01-27T03:59:33;8.30;;;2.20;;
65597;SDS011;52267;51.984;20.956;2024-01-27T04:02:00;6.40;;;2.40;;
65597;SDS011;52267;51.984;20.956;2024-01-27T04:04:27;6.50;;;2.40;;
65597;SDS011;52267;51.984;20.956;2024-01-27T04:06:54;10.00;;;3.00;;
65597;SDS011;52267;51.984;20.956;2024-01-27T04:09:21;8.40;;;2.80;;
65597;SDS011;52267;51.984;20.956;2024-01-27T04:11:48;10.60;;;3.20;;
65597;SDS011;52267;51.984;20.956;2024-01-27T04:14:15;9.80;;;2.70;;
65597;SDS011;52267;51.984;20.956;2024-01-27T04:16:42;6.70;;;2.20;;
65597;SDS011;52267;51.984;20.956;2024-01-27T04:19:09;10.90;;;3.50;;
65597;SDS011;52267;51.984;20.956;2024-01-27T04:21:36;5.70;;;2.60;;
65597;SDS011;52267;51.984;20.956;2024-01-27T04:24:03;6.90;;;2.50;;
65597;SDS011;52267;51.984;20.956;2024-01-27T04:26:30;8.60;;;2.80;;
65597;SDS011;52267;51.984;20.956;2024-01-27T04:28:57;7.00;;;2.10;;
65597;SDS011;52267;51.984;20.956;2024-01-27T04:35:13;9.80;;;2.70;;
65597;SDS011;52267;51.984;20.956;2024-01-27T04:37:40;7.40;;;2.10;;
65597;SDS011;52267;51.984;20.956;2024-01-27T04:40:07;8.60;;;2.80;;
65597;SDS011;52267;51.984;20.956;2024-01-27T04:42:37;9.00;;;2.60;;
65597;SDS011;52267;51.984;20.956;2024-01-27T04:45:05;9.50;;;2.30;;
65597;SDS011;52267;51.984;20.956;2024-01-27T04:47:34;8.00;;;2.60;;
65597;SDS011;52267;51.984;20.956;2024-01-27T04:50:01;7.80;;;2.40;;
65597;SDS011;52267;51.984;20.956;2024-01-27T04:52:28;12.50;;;3.10;;
65597;SDS011;52267;51.984;20.956;2024-01-27T04:54:55;8.00;;;2.50;;
65597;SDS011;52267;51.984;20.956;2024-01-27T04:57:22;6.60;;;2.40;;
65597;SDS011;52267;51.984;20.956;2024-01-27T04:59:49;8.70;;;2.70;;
65597;SDS011;52267;51.984;20.956;2024-01-27T05:02:17;7.10;;;2.10;;
65597;SDS011;52267;51.984;20.956;2024-01-27T05:04:44;11.40;;;2.80;;
65597;SDS011;52267;51.984;20.956;2024-01-27T05:07:11;6.70;;;2.70;;
65597;SDS011;52267;51.984;20.956;2024-01-27T05:09:38;6.90;;;2.40;;
65597;SDS011;52267;51.984;20.956;2024-01-27T05:12:06;7.80;;;2.80;;
65597;SDS011;52267;51.984;20.956;2024-01-27T05:14:33;9.70;;;2.40;;
65597;SDS011;52267;51.984;20.956;2024-01-27T05:17:00;6.90;;;3.30;;
65597;SDS011;52267;51.984;20.956;2024-01-27T05:19:27;7.20;;;2.60;;
65597;SDS011;52267;51.984;20.956;2024-01-27T05:21:54;7.80;;;2.10;;
65597;SDS011;52267;51.984;20.956;2024-01-27T05:24:21;9.60;;;2.80;;
65597;SDS011;52267;51.984;20.956;2024-01-27T05:26:48;7.40;;;2.00;;
65597;SDS011;52267;51.984;20.956;2024-01-27T05:29:15;8.30;;;1.80;;
65597;SDS011;52267;51.984;20.956;2024-01-27T05:31:42;11.10;;;2.10;;
65597;SDS011;52267;51.984;20.956;2024-01-27T05:34:13;8.00;;;2.40;;
65597;SDS011;52267;51.984;20.956;2024-01-27T05:36:41;7.80;;;2.40;;
65597;SDS011;52267;51.984;20.956;2024-01-27T05:39:09;5.00;;;2.50;;
65597;SDS011;52267;51.984;20.956;2024-01-27T05:41:36;7.00;;;2.40;;
65597;SDS011;52267;51.984;20.956;2024-01-27T05:44:03;10.30;;;3.50;;
65597;SDS011;52267;51.984;20.956;2024-01-27T05:46:30;7.40;;;2.20;;
65597;SDS011;52267;51.984;20.956;2024-01-27T05:48:57;7.10;;;2.70;;
65597;SDS011;52267;51.984;20.956;2024-01-27T05:51:29;9.80;;;2.00;;
65597;SDS011;52267;51.984;20.956;2024-01-27T05:54:00;8.30;;;2.90;;
65597;SDS011;52267;51.984;20.956;2024-01-27T05:56:27;6.50;;;2.20;;
65597;SDS011;52267;51.984;20.956;2024-01-27T05:58:54;8.00;;;2.50;;
65597;SDS011;52267;51.984;20.956;2024-01-27T06:01:21;8.70;;;2.80;;
65597;SDS011;52267;51.984;20.956;2024-01-27T06:03:48;13.50;;;2.20;;
65597;SDS011;52267;51.984;20.956;2024-01-27T06:06:15;10.30;;;2.50;;
65597;SDS011;52267;51.984;20.956;2024-01-27T06:08:42;10.30;;;2.50;;
65597;SDS011;52267;51.984;20.956;2024-01-27T06:11:09;9.40;;;2.90;;
65597;SDS011;52267;51.984;20.956;2024-01-27T06:13:36;7.70;;;2.40;;
65597;SDS011;52267;51.984;20.956;2024-01-27T06:16:08;6.70;;;3.10;;
65597;SDS011;52267;51.984;20.956;2024-01-27T06:18:38;7.70;;;2.70;;
65597;SDS011;52267;51.984;20.956;2024-01-27T06:21:05;9.70;;;2.50;;
65597;SDS011;52267;51.984;20.956;2024-01-27T06:23:32;10.20;;;2.50;;
65597;SDS011;52267;51.984;20.956;2024-01-27T06:25:59;6.70;;;2.40;;
65597;SDS011;52267;51.984;20.956;2024-01-27T06:28:30;9.80;;;2.80;;
65597;SDS011;52267;51.984;20.956;2024-01-27T06:30:57;10.50;;;2.70;;
65597;SDS011;52267;51.984;20.956;2024-01-27T06:33:24;11.10;;;2.90;;
65597;SDS011;52267;51.984;20.956;2024-01-27T06:35:51;8.20;;;2.80;;
65597;SDS011;52267;51.984;20.956;2024-01-27T06:38:21;10.20;;;2.70;;
65597;SDS011;52267;51.984;20.956;2024-01-27T06:40:48;9.20;;;2.80;;
65597;SDS011;52267;51.984;20.956;2024-01-27T06:43:15;9.20;;;2.60;;
65597;SDS011;52267;51.984;20.956;2024-01-27T06:45:42;7.00;;;3.30;;
65597;SDS011;52267;51.984;20.956;2024-01-27T06:48:09;6.10;;;2.40;;
65597;SDS011;52267;51.984;20.956;2024-01-27T06:50:36;10.00;;;2.90;;
65597;SDS011;52267;51.984;20.956;2024-01-27T06:53:03;10.80;;;3.00;;
65597;SDS011;52267;51.984;20.956;2024-01-27T06:55:30;7.00;;;2.60;;
65597;SDS011;52267;51.984;20.956;2024-01-27T06:57:57;8.80;;;2.90;;
65597;SDS011;52267;51.984;20.956;2024-01-27T07:00:24;9.20;;;2.50;;
65597;SDS011;52267;51.984;20.956;2024-01-27T07:02:51;7.90;;;2.70;;
65597;SDS011;52267;51.984;20.956;2024-01-27T07:05:18;10.10;;;3.90;;
65597;SDS011;52267;51.984;20.956;2024-01-27T07:07:45;8.70;;;2.50;;
65597;SDS011;52267;51.984;20.956;2024-01-27T07:10:12;9.40;;;3.90;;
65597;SDS011;52267;51.984;20.956;2024-01-27T07:12:39;7.90;;;2.80;;
65597;SDS011;52267;51.984;20.956;2024-01-27T07:15:06;7.00;;;2.60;;
65597;SDS011;52267;51.984;20.956;2024-01-27T07:17:33;8.20;;;2.90;;
65597;SDS011;52267;51.984;20.956;2024-01-27T07:20:00;11.30;;;3.50;;
65597;SDS011;52267;51.984;20.956;2024-01-27T07:22:28;7.10;;;2.40;;
65597;SDS011;52267;51.984;20.956;2024-01-27T07:24:55;8.10;;;3.20;;
65597;SDS011;52267;51.984;20.956;2024-01-27T07:27:23;8.10;;;2.90;;
65597;SDS011;52267;51.984;20.956;2024-01-27T07:29:50;8.90;;;3.10;;
65597;SDS011;52267;51.984;20.956;2024-01-27T07:32:17;9.70;;;3.40;;
65597;SDS011;52267;51.984;20.956;2024-01-27T07:34:44;9.30;;;3.30;;
65597;SDS011;52267;51.984;20.956;2024-01-27T07:37:11;7.50;;;2.80;;
65597;SDS011;52267;51.984;20.956;2024-01-27T07:39:38;13.00;;;3.10;;
65597;SDS011;52267;51.984;20.956;2024-01-27T07:42:06;8.50;;;3.60;;
65597;SDS011;52267;51.984;20.956;2024-01-27T07:44:33;9.50;;;2.40;;
65597;SDS011;52267;51.984;20.956;2024-01-27T07:47:00;9.50;;;3.50;;
65597;SDS011;52267;51.984;20.956;2024-01-27T07:49:27;10.80;;;3.20;;
65597;SDS011;52267;51.984;20.956;2024-01-27T07:51:55;7.30;;;3.30;;
65597;SDS011;52267;51.984;20.956;2024-01-27T07:54:22;13.50;;;3.20;;
65597;SDS011;52267;51.984;20.956;2024-01-27T07:56:49;9.40;;;3.30;;
65597;SDS011;52267;51.984;20.956;2024-01-27T07:59:16;10.10;;;4.30;;
65597;SDS011;52267;51.984;20.956;2024-01-27T08:01:43;9.40;;;3.80;;
65597;SDS011;52267;51.984;20.956;2024-01-27T08:04:10;9.00;;;4.10;;
65597;SDS011;52267;51.984;20.956;2024-01-27T08:06:49;9.70;;;2.90;;
65597;SDS011;52267;51.984;20.956;2024-01-27T08:09:17;5.20;;;2.40;;
65597;SDS011;52267;51.984;20.956;2024-01-27T08:11:44;7.60;;;3.30;;
65597;SDS011;52267;51.984;20.956;2024-01-27T08:14:12;7.20;;;2.90;;
65597;SDS011;52267;51.984;20.956;2024-01-27T08:16:39;6.40;;;2.90;;
65597;SDS011;52267;51.984;20.956;2024-01-27T08:19:06;10.90;;;3.80;;
65597;SDS011;52267;51.984;20.956;2024-01-27T08:21:33;7.10;;;3.00;;
65597;SDS011;52267;51.984;20.956;2024-01-27T08:24:00;7.30;;;3.40;;
65597;SDS011;52267;51.984;20.956;2024-01-27T08:26:27;10.40;;;3.40;;
65597;SDS011;52267;51.984;20.956;2024-01-27T08:28:54;6.20;;;2.50;;
65597;SDS011;52267;51.984;20.956;2024-01-27T08:31:22;9.00;;;3.20;;
65597;SDS011;52267;51.984;20.956;2024-01-27T08:33:50;9.40;;;3.60;;
65597;SDS011;52267;51.984;20.956;2024-01-27T08:36:17;6.70;;;2.90;;
65597;SDS011;52267;51.984;20.956;2024-01-27T08:38:44;10.80;;;3.20;;
65597;SDS011;52267;51.984;20.956;2024-01-27T08:41:12;7.70;;;3.40;;
65597;SDS011;52267;51.984;20.956;2024-01-27T08:43:39;5.10;;;2.20;;
65597;SDS011;52267;51.984;20.956;2024-01-27T08:46:06;8.30;;;2.60;;
65597;SDS011;52267;51.984;20.956;2024-01-27T08:48:38;8.80;;;3.40;;
65597;SDS011;52267;51.984;20.956;2024-01-27T08:51:09;6.60;;;2.80;;
65597;SDS011;52267;51.984;20.956;2024-01-27T08:53:37;5.70;;;2.60;;
65597;SDS011;52267;51.984;20.956;2024-01-27T08:56:04;4.20;;;2.50;;
65597;SDS011;52267;51.984;20.956;2024-01-27T08:58:32;5.90;;;2.60;;
65597;SDS011;52267;51.984;20.956;2024-01-27T09:00:59;4.30;;;2.50;;
65597;SDS011;52267;51.984;20.956;2024-01-27T09:03:31;5.70;;;2.90;;
65597;SDS011;52267;51.984;20.956;2024-01-27T09:05:58;5.60;;;2.30;;
65597;SDS011;52267;51.984;20.956;2024-01-27T09:08:25;6.90;;;3.00;;
65597;SDS011;52267;51.984;20.956;2024-01-27T09:10:52;7.60;;;2.70;;
65597;SDS011;52267;51.984;20.956;2024-01-27T09:13:19;5.60;;;2.60;;
65597;SDS011;52267;51.984;20.956;2024-01-27T09:15:46;5.60;;;2.20;;
65597;SDS011;52267;51.984;20.956;2024-01-27T09:18:15;4.30;;;2.00;;
65597;SDS011;52267;51.984;20.956;2024-01-27T09:20:43;4.70;;;2.30;;
65597;SDS011;52267;51.984;20.956;2024-01-27T09:23:10;5.90;;;3.00;;
65597;SDS011;52267;51.984;20.956;2024-01-27T09:25:38;5.40;;;3.60;;
65597;SDS011;52267;51.984;20.956;2024-01-27T09:28:05;7.20;;;2.70;;
65597;SDS011;52267;51.984;20.956;2024-01-27T09:30:33;6.10;;;2.70;;
65597;SDS011;52267;51.984;20.956;2024-01-27T09:33:00;4.20;;;2.50;;
65597;SDS011;52267;51.984;20.956;2024-01-27T09:35:27;4.70;;;2.50;;
65597;SDS011;52267;51.984;20.956;2024-01-27T09:37:54;8.90;;;2.80;;
65597;SDS011;52267;51.984;20.956;2024-01-27T09:40:21;12.10;;;4.10;;
65597;SDS011;52267;51.984;20.956;2024-01-27T09:42:52;7.70;;;3.30;;
65597;SDS011;52267;51.984;20.956;2024-01-27T09:45:22;8.10;;;2.90;;
65597;SDS011;52267;51.984;20.956;2024-01-27T09:47:49;9.10;;;3.10;;
65597;SDS011;52267;51.984;20.956;2024-01-27T09:50:18;6.30;;;2.60;;
65597;SDS011;52267;51.984;20.956;2024-01-27T09:52:45;6.60;;;3.10;;
65597;SDS011;52267;51.984;20.956;2024-01-27T09:55:12;5.50;;;2.70;;
65597;SDS011;52267;51.984;20.956;2024-01-27T09:57:39;6.40;;;3.40;;
65597;SDS011;52267;51.984;20.956;2024-01-27T10:00:10;6.50;;;3.60;;
65597;SDS011;52267;51.984;20.956;2024-01-27T10:02:43;7.60;;;3.70;;
65597;SDS011;52267;51.984;20.956;2024-01-27T10:05:13;5.70;;;3.20;;
65597;SDS011;52267;51.984;20.956;2024-01-27T10:07:40;6.50;;;3.30;;
65597;SDS011;52267;51.984;20.956;2024-01-27T10:10:07;6.60;;;3.70;;
65597;SDS011;52267;51.984;20.956;2024-01-27T10:12:40;5.60;;;2.80;;
65597;SDS011;52267;51.984;20.956;2024-01-27T10:15:21;5.30;;;3.00;;
65597;SDS011;52267;51.984;20.956;2024-01-27T10:17:49;5.50;;;2.90;;
65597;SDS011;52267;51.984;20.956;2024-01-27T10:20:16;5.80;;;3.40;;
65597;SDS011;52267;51.984;20.956;2024-01-27T10:22:45;5.80;;;3.50;;
65597;SDS011;52267;51.984;20.956;2024-01-27T10:25:12;6.10;;;3.40;;
65597;SDS011;52267;51.984;20.956;2024-01-27T10:27:40;6.80;;;3.30;;
65597;SDS011;52267;51.984;20.956;2024-01-27T10:30:15;6.50;;;3.30;;
65597;SDS011;52267;51.984;20.956;2024-01-27T10:32:43;7.50;;;5.00;;
65597;SDS011;52267;51.984;20.956;2024-01-27T10:35:10;6.00;;;3.40;;
65597;SDS011;52267;51.984;20.956;2024-01-27T10:37:38;7.90;;;4.00;;
65597;SDS011;52267;51.984;20.956;2024-01-27T10:40:07;6.30;;;3.80;;
65597;SDS011;52267;51.984;20.956;2024-01-27T10:42:36;8.60;;;3.40;;
65597;SDS011;52267;51.984;20.956;2024-01-27T10:45:04;6.80;;;3.40;;
65597;SDS011;52267;51.984;20.956;2024-01-27T10:47:32;7.90;;;4.00;;
65597;SDS011;52267;51.984;20.956;2024-01-27T10:50:00;6.90;;;3.80;;
65597;SDS011;52267;51.984;20.956;2024-01-27T10:52:31;8.30;;;4.10;;
65597;SDS011;52267;51.984;20.956;2024-01-27T10:55:01;4.60;;;2.50;;
65597;SDS011;52267;51.984;20.956;2024-01-27T10:57:30;6.60;;;4.10;;
65597;SDS011;52267;51.984;20.956;2024-01-27T11:00:00;5.30;;;3.60;;
65597;SDS011;52267;51.984;20.956;2024-01-27T11:02:33;8.90;;;3.90;;
65597;SDS011;52267;51.984;20.956;2024-01-27T11:05:04;6.10;;;3.80;;
65597;SDS011;52267;51.984;20.956;2024-01-27T11:07:34;6.80;;;4.10;;
65597;SDS011;52267;51.984;20.956;2024-01-27T11:10:01;6.50;;;3.40;;
65597;SDS011;52267;51.984;20.956;2024-01-27T11:12:29;6.40;;;3.20;;
65597;SDS011;52267;51.984;20.956;2024-01-27T11:14:56;6.00;;;3.20;;
65597;SDS011;52267;51.984;20.956;2024-01-27T11:17:26;5.70;;;3.00;;
65597;SDS011;52267;51.984;20.956;2024-01-27T11:19:56;6.10;;;3.50;;
65597;SDS011;52267;51.984;20.956;2024-01-27T11:22:28;6.90;;;3.70;;
65597;SDS011;52267;51.984;20.956;2024-01-27T11:27:41;5.40;;;2.60;;
65597;SDS011;52267;51.984;20.956;2024-01-27T11:30:31;6.70;;;3.10;;
65597;SDS011;52267;51.984;20.956;2024-01-27T11:33:02;6.40;;;3.40;;
65597;SDS011;52267;51.984;20.956;2024-01-27T11:35:31;5.90;;;3.30;;
65597;SDS011;52267;51.984;20.956;2024-01-27T11:37:58;4.60;;;2.70;;
65597;SDS011;52267;51.984;20.956;2024-01-27T11:40:26;4.40;;;2.90;;
65597;SDS011;52267;51.984;20.956;2024-01-27T11:42:54;5.90;;;3.20;;
65597;SDS011;52267;51.984;20.956;2024-01-27T11:47:52;5.30;;;3.60;;
65597;SDS011;52267;51.984;20.956;2024-01-27T11:50:19;6.50;;;3.30;;
65597;SDS011;52267;51.984;20.956;2024-01-27T11:52:47;4.50;;;3.30;;
65597;SDS011;52267;51.984;20.956;2024-01-27T11:55:14;4.70;;;3.10;;
65597;SDS011;52267;51.984;20.956;2024-01-27T11:57:42;5.30;;;3.20;;
65597;SDS011;52267;51.984;20.956;2024-01-27T12:00:09;5.50;;;2.70;;
65597;SDS011;52267;51.984;20.956;2024-01-27T12:02:38;4.60;;;2.80;;
65597;SDS011;52267;51.984;20.956;2024-01-27T12:05:05;4.00;;;2.50;;
65597;SDS011;52267;51.984;20.956;2024-01-27T12:07:34;4.70;;;2.90;;
65597;SDS011;52267;51.984;20.956;2024-01-27T12:10:01;4.80;;;2.70;;
65597;SDS011;52267;51.984;20.956;2024-01-27T12:12:28;4.40;;;2.90;;
65597;SDS011;52267;51.984;20.956;2024-01-27T12:14:55;4.60;;;2.70;;
65597;SDS011;52267;51.984;20.956;2024-01-27T12:17:22;3.40;;;2.20;;
65597;SDS011;52267;51.984;20.956;2024-01-27T12:19:52;6.70;;;2.80;;
65597;SDS011;52267;51.984;20.956;2024-01-27T12:22:27;3.70;;;2.20;;
65597;SDS011;52267;51.984;20.956;2024-01-27T12:25:07;5.10;;;2.80;;
65597;SDS011;52267;51.984;20.956;2024-01-27T12:27:35;6.30;;;2.50;;
65597;SDS011;52267;51.984;20.956;2024-01-27T12:30:02;5.00;;;2.80;;
65597;SDS011;52267;51.984;20.956;2024-01-27T12:32:31;3.90;;;2.80;;
65597;SDS011;52267;51.984;20.956;2024-01-27T12:34:58;5.90;;;3.20;;
65597;SDS011;52267;51.984;20.956;2024-01-27T12:37:31;4.30;;;2.80;;
65597;SDS011;52267;51.984;20.956;2024-01-27T12:39:58;4.80;;;3.00;;
65597;SDS011;52267;51.984;20.956;2024-01-27T12:42:25;5.40;;;3.10;;
65597;SDS011;52267;51.984;20.956;2024-01-27T12:44:52;6.60;;;3.10;;
65597;SDS011;52267;51.984;20.956;2024-01-27T12:47:19;4.70;;;3.30;;
65597;SDS011;52267;51.984;20.956;2024-01-27T12:49:46;5.20;;;3.40;;
65597;SDS011;52267;51.984;20.956;2024-01-27T12:52:13;5.90;;;2.80;;
65597;SDS011;52267;51.984;20.956;2024-01-27T12:54:41;4.20;;;2.80;;
65597;SDS011;52267;51.984;20.956;2024-01-27T12:57:08;5.70;;;3.40;;
65597;SDS011;52267;51.984;20.956;2024-01-27T12:59:35;5.40;;;3.70;;
65597;SDS011;52267;51.984;20.956;2024-01-27T13:02:02;4.40;;;2.80;;
65597;SDS011;52267;51.984;20.956;2024-01-27T13:04:29;6.60;;;3.30;;
65597;SDS011;52267;51.984;20.956;2024-01-27T13:06:56;4.80;;;3.30;;
65597;SDS011;52267;51.984;20.956;2024-01-27T13:09:23;5.40;;;2.90;;
65597;SDS011;52267;51.984;20.956;2024-01-27T13:11:50;4.90;;;3.10;;
65597;SDS011;52267;51.984;20.956;2024-01-27T13:14:17;5.10;;;3.20;;
65597;SDS011;52267;51.984;20.956;2024-01-27T13:16:46;5.90;;;3.50;;
65597;SDS011;52267;51.984;20.956;2024-01-27T13:19:13;5.80;;;3.30;;
65597;SDS011;52267;51.984;20.956;2024-01-27T13:21:40;4.70;;;3.70;;
65597;SDS011;52267;51.984;20.956;2024-01-27T13:24:07;6.30;;;4.00;;
65597;SDS011;52267;51.984;20.956;2024-01-27T13:26:35;5.40;;;3.60;;
65597;SDS011;52267;51.984;20.956;2024-01-27T13:29:05;7.00;;;4.00;;
65597;SDS011;52267;51.984;20.956;2024-01-27T13:31:33;7.00;;;3.60;;
65597;SDS011;52267;51.984;20.956;2024-01-27T13:34:00;7.00;;;3.70;;
65597;SDS011;52267;51.984;20.956;2024-01-27T13:36:28;6.60;;;3.70;;
65597;SDS011;52267;51.984;20.956;2024-01-27T13:38:55;6.90;;;4.00;;
65597;SDS011;52267;51.984;20.956;2024-01-27T13:41:22;7.30;;;3.80;;
65597;SDS011;52267;51.984;20.956;2024-01-27T13:43:49;8.40;;;4.30;;
65597;SDS011;52267;51.984;20.956;2024-01-27T13:46:16;6.60;;;3.80;;
65597;SDS011;52267;51.984;20.956;2024-01-27T13:48:43;6.70;;;3.80;;
65597;SDS011;52267;51.984;20.956;2024-01-27T13:51:11;6.90;;;3.80;;
65597;SDS011;52267;51.984;20.956;2024-01-27T13:53:38;5.80;;;3.50;;
65597;SDS011;52267;51.984;20.956;2024-01-27T13:56:05;5.40;;;3.40;;
65597;SDS011;52267;51.984;20.956;2024-01-27T13:58:33;9.70;;;4.20;;
65597;SDS011;52267;51.984;20.956;2024-01-27T14:01:00;5.70;;;3.90;;
65597;SDS011;52267;51.984;20.956;2024-01-27T14:03:27;6.50;;;3.70;;
65597;SDS011;52267;51.984;20.956;2024-01-27T14:05:54;6.90;;;4.00;;
65597;SDS011;52267;51.984;20.956;2024-01-27T14:08:24;5.00;;;3.50;;
65597;SDS011;52267;51.984;20.956;2024-01-27T14:10:51;6.40;;;3.60;;
65597;SDS011;52267;51.984;20.956;2024-01-27T14:13:19;8.90;;;4.10;;
65597;SDS011;52267;51.984;20.956;2024-01-27T14:15:46;6.30;;;3.90;;
65597;SDS011;52267;51.984;20.956;2024-01-27T14:18:13;7.30;;;4.30;;
65597;SDS011;52267;51.984;20.956;2024-01-27T14:20:47;5.60;;;3.50;;
65597;SDS011;52267;51.984;20.956;2024-01-27T14:23:15;5.80;;;3.70;;
65597;SDS011;52267;51.984;20.956;2024-01-27T14:25:42;4.90;;;3.20;;
65597;SDS011;52267;51.984;20.956;2024-01-27T14:28:09;5.30;;;3.60;;
65597;SDS011;52267;51.984;20.956;2024-01-27T14:30:37;4.40;;;3.60;;
65597;SDS011;52267;51.984;20.956;2024-01-27T14:33:06;5.10;;;3.10;;
65597;SDS011;52267;51.984;20.956;2024-01-27T14:35:33;5.00;;;3.20;;
65597;SDS011;52267;51.984;20.956;2024-01-27T14:38:00;4.90;;;2.90;;
65597;SDS011;52267;51.984;20.956;2024-01-27T14:40:27;5.50;;;3.40;;
65597;SDS011;52267;51.984;20.956;2024-01-27T14:42:54;5.10;;;3.20;;
65597;SDS011;52267;51.984;20.956;2024-01-27T14:45:22;5.80;;;3.70;;